^^
Saratoga-Weather Station Historical Data
Daily Summary for December 27, 2020 Units:  English    Metric   Both
Daily Weekly Monthly Yearly Custom
  High: Low: Average:
Temperature: 39.6 °F 34.9 °F 37.4 °F
Dew Point: 36.7 °F 30.9 °F 34.3 °F
Humidity: 93% 83% 89%
Wind Speed: 13mph 0mph 4mph
Wind Gust: 24mph - -
Wind- - SSE
Pressure: 30 in 28.9 in -
Precipitation: 0.22 in    
Historical Graphs
 
 
Tabular Data for December 27, 2020
Time Temperature Dew Point Pressure Wind Wind Speed Wind Gust Humidity Rainfall Rate (Hourly) solar
00:02 34.9 °F 32 °F 30 in North 2 mph 5 mph 89% 0 in 0 W/m2
00:07 34.9 °F 31.6 °F 30 in SE 4.9 mph 7 mph 88% 0 in 0 W/m2
00:12 34.9 °F 31.6 °F 30 in North 2 mph 4 mph 88% 0 in 0 W/m2
00:17 34.9 °F 31.6 °F 30 in ENE 8.9 mph 9 mph 88% 0 in 0 W/m2
00:22 34.9 °F 31.6 °F 30 in ENE 0.9 mph 8 mph 88% 0 in 0 W/m2
00:27 34.9 °F 31.6 °F 30 in ESE 2 mph 7 mph 88% 0 in 0 W/m2
00:32 35.1 °F 31.8 °F 30 in East 4 mph 11 mph 88% 0 in 0 W/m2
00:37 35.1 °F 31.6 °F 30 in NNE 4 mph 5 mph 87% 0 in 0 W/m2
00:42 35.1 °F 31.6 °F 30 in NNW 4 mph 5 mph 87% 0 in 0 W/m2
00:47 35.1 °F 31.6 °F 30 in West 4 mph 8 mph 87% 0 in 0 W/m2
00:52 35.2 °F 31.8 °F 29.9 in NNW 8.1 mph 8 mph 87% 0 in 0 W/m2
00:57 35.1 °F 31.6 °F 29.9 in NNW 0.9 mph 6 mph 87% 0 in 0 W/m2
01:02 35.1 °F 31.6 °F 29.9 in NE 2 mph 5 mph 87% 0 in 0 W/m2
01:07 35.1 °F 31.6 °F 29.9 in SSE 2.9 mph 3 mph 87% 0 in 0 W/m2
01:12 35.1 °F 31.6 °F 29.9 in WNW 6.9 mph 10 mph 87% 0 in 0 W/m2
01:17 35.1 °F 31.6 °F 29.9 in NNW 4.9 mph 5 mph 87% 0 in 0 W/m2
01:22 35.1 °F 31.6 °F 29.9 in South 2 mph 10 mph 87% 0 in 0 W/m2
01:27 35.1 °F 31.6 °F 29.9 in NNW 2.9 mph 9 mph 87% 0 in 0 W/m2
01:32 35.1 °F 31.6 °F 29.9 in NE 2 mph 6 mph 87% 0 in 0 W/m2
01:37 35.1 °F 31.6 °F 29.9 in NW 4 mph 9 mph 87% 0 in 0 W/m2
01:42 35.1 °F 31.6 °F 29.9 in North 2 mph 5 mph 87% 0 in 0 W/m2
01:47 35.1 °F 31.3 °F 29.9 in NE 2 mph 5 mph 86% 0 in 0 W/m2
01:52 35.2 °F 31.5 °F 29.9 in NW 2.9 mph 4 mph 86% 0 in 0 W/m2
01:57 35.2 °F 31.5 °F 29.9 in NW 2 mph 9 mph 86% 0 in 0 W/m2
02:02 35.2 °F 31.5 °F 29.9 in NE 4 mph 9 mph 86% 0 in 0 W/m2
02:07 35.4 °F 31.6 °F 29.9 in East 2 mph 5 mph 86% 0 in 0 W/m2
02:12 35.4 °F 31.6 °F 29.9 in East 2.9 mph 4 mph 86% 0 in 0 W/m2
02:17 35.6 °F 31.5 °F 29.9 in North 2 mph 6 mph 85% 0 in 0 W/m2
02:22 35.8 °F 31.6 °F 29.9 in East 11 mph 11 mph 85% 0 in 0 W/m2
02:27 35.8 °F 31.5 °F 29.8 in NNE 2 mph 10 mph 84% 0 in 0 W/m2
02:32 35.8 °F 31.1 °F 29.8 in West 11 mph 11 mph 83% 0 in 0 W/m2
02:37 35.8 °F 31.5 °F 29.8 in North 2.9 mph 4 mph 84% 0 in 0 W/m2
02:42 35.6 °F 31.3 °F 29.8 in ESE 8.1 mph 10 mph 84% 0 in 0 W/m2
02:47 35.4 °F 31.1 °F 29.8 in WNW 4 mph 5 mph 84% 0 in 0 W/m2
02:52 35.4 °F 31.1 °F 29.8 in NE 6 mph 6 mph 84% 0 in 0 W/m2
02:57 35.4 °F 31.1 °F 29.8 in NE 4 mph 8 mph 84% 0 in 0 W/m2
03:02 35.2 °F 30.9 °F 29.8 in WNW 2.9 mph 5 mph 84% 0 in 0 W/m2
03:07 35.2 °F 30.9 °F 29.8 in ENE 4.9 mph 8 mph 84% 0 in 0 W/m2
03:12 35.2 °F 30.9 °F 29.8 in NNW 2.9 mph 9 mph 84% 0 in 0 W/m2
03:17 35.2 °F 31.1 °F 29.8 in ENE 2.9 mph 6 mph 85% 0 in 0 W/m2
03:22 35.2 °F 31.1 °F 29.8 in NNE 2.9 mph 6 mph 85% 0 in 0 W/m2
03:27 35.2 °F 31.1 °F 29.8 in East 2.9 mph 8 mph 85% 0 in 0 W/m2
03:32 35.4 °F 31.3 °F 29.8 in WNW 4 mph 9 mph 85% 0 in 0 W/m2
03:37 35.4 °F 31.3 °F 29.8 in NNE 2.9 mph 9 mph 85% 0 in 0 W/m2
03:42 35.4 °F 31.3 °F 29.8 in ENE 2.9 mph 7 mph 85% 0 in 0 W/m2
03:47 35.6 °F 31.5 °F 29.8 in Calm   9 mph 85% 0 in 0 W/m2
03:52 35.6 °F 31.5 °F 29.8 in NNE 2 mph 5 mph 85% 0 in 0 W/m2
03:57 35.6 °F 31.5 °F 29.8 in WNW 0.9 mph 8 mph 85% 0 in 0 W/m2
04:02 35.6 °F 31.8 °F 29.8 in NNE 8.1 mph 10 mph 86% 0 in 0 W/m2
04:07 35.6 °F 31.8 °F 29.8 in West 4 mph 6 mph 86% 0 in 0 W/m2
04:12 35.6 °F 32.2 °F 29.8 in North 6 mph 6 mph 87% 0 in 0 W/m2
04:17 35.4 °F 32 °F 29.7 in North 2 mph 11 mph 87% 0 in 0 W/m2
04:22 35.6 °F 32.2 °F 29.7 in NNW 4 mph 5 mph 87% 0 in 0 W/m2
04:27 35.6 °F 32.2 °F 29.7 in ENE 8.1 mph 8 mph 87% 0 in 0 W/m2
04:32 35.8 °F 32.4 °F 29.7 in NW 2.9 mph 5 mph 87% 0 in 0 W/m2
04:37 35.8 °F 32.4 °F 29.7 in East 4.9 mph 5 mph 87% 0 in 0 W/m2
04:43 36 °F 32.7 °F 29.7 in NE 4 mph 6 mph 88% 0 in 0 W/m2
04:48 36 °F 32.7 °F 29.7 in ENE 8.1 mph 8 mph 88% 0 in 0 W/m2
04:53 36 °F 32.7 °F 29.7 in NNW 6 mph 9 mph 88% 0 in 0 W/m2
04:58 36 °F 32.7 °F 29.7 in NE 2 mph 11 mph 88% 0 in 0 W/m2
05:03 36.1 °F 32.9 °F 29.7 in North 0.9 mph 5 mph 88% 0 in 0 W/m2
05:08 36.1 °F 32.9 °F 29.7 in East 2 mph 11 mph 88% 0 in 0 W/m2
05:13 36.1 °F 33.3 °F 29.7 in North 2 mph 7 mph 89% 0 in 0 W/m2
05:18 36 °F 33.1 °F 29.7 in Calm   9 mph 89% 0 in 0 W/m2
05:23 36 °F 33.1 °F 29.7 in NNE 4 mph 5 mph 89% 0 in 0 W/m2
05:28 36 °F 33.3 °F 29.7 in NE 4 mph 9 mph 90% 0 in 0 W/m2
05:33 35.8 °F 33.1 °F 29.7 in NE 4 mph 10 mph 90% 0 in 0 W/m2
05:38 35.8 °F 33.4 °F 29.7 in NNE 2 mph 8 mph 91% 0 in 0 W/m2
05:43 35.6 °F 33.3 °F 29.7 in NE 0.9 mph 10 mph 91% 0 in 0 W/m2
05:48 35.6 °F 33.3 °F 29.7 in NW 2 mph 6 mph 91% 0 in 0 W/m2
05:53 35.4 °F 33.1 °F 29.7 in North 2.9 mph 9 mph 91% 0 in 0 W/m2
05:58 35.4 °F 33.1 °F 29.7 in NE 2.9 mph 4 mph 91% 0 in 0 W/m2
06:03 35.6 °F 32.9 °F 29.7 in NNE 2 mph 8 mph 90% 0 in 0 W/m2
06:08 35.6 °F 32.9 °F 29.6 in North 2.9 mph 5 mph 90% 0 in 0 W/m2
06:13 35.6 °F 32.9 °F 29.6 in ENE 2.9 mph 5 mph 90% 0 in 0 W/m2
06:18 35.6 °F 32.9 °F 29.6 in NNW 4.9 mph 10 mph 90% 0 in 0 W/m2
06:23 35.6 °F 32.9 °F 29.6 in North 0.9 mph 11 mph 90% 0 in 0 W/m2
06:28 35.8 °F 33.1 °F 29.6 in NNE 0.9 mph 5 mph 90% 0 in 0 W/m2
06:33 35.6 °F 32.9 °F 29.6 in NE 2.9 mph 11 mph 90% 0 in 0 W/m2
06:38 35.6 °F 33.3 °F 29.6 in WNW 2 mph 5 mph 91% 0 in 0 W/m2
06:43 35.6 °F 33.3 °F 29.6 in WNW 6 mph 6 mph 91% 0 in 0 W/m2
06:48 35.4 °F 33.1 °F 29.6 in North 4 mph 7 mph 91% 0 in 0 W/m2
06:53 35.4 °F 33.3 °F 29.6 in NNE 2.9 mph 8 mph 92% 0 in 0 W/m2
06:58 35.4 °F 33.3 °F 29.6 in North 4 mph 5 mph 92% 0 in 0 W/m2
07:03 35.4 °F 33.3 °F 29.6 in NE 4.9 mph 9 mph 92% 0 in 0 W/m2
07:08 35.4 °F 33.3 °F 29.6 in NE 2 mph 7 mph 92% 0 in 0 W/m2
07:13 35.4 °F 33.3 °F 29.6 in ESE 4 mph 9 mph 92% 0 in 0 W/m2
07:18 35.4 °F 33.3 °F 29.6 in NE 2.9 mph 6 mph 92% 0 in 0 W/m2
07:23 35.4 °F 33.6 °F 29.6 in North 2.9 mph 5 mph 93% 0.01 in 0 W/m2
07:28 35.4 °F 33.6 °F 29.6 in NNE 0.9 mph 7 mph 93% 0.01 in 0 W/m2
07:33 35.4 °F 33.6 °F 29.6 in NW 2 mph 11 mph 93% 0.01 in 0 W/m2
07:38 35.6 °F 33.8 °F 29.6 in WSW 2 mph 9 mph 93% 0.01 in 0 W/m2
07:43 35.8 °F 33.6 °F 29.6 in NE 0.9 mph 11 mph 92% 0.01 in 0 W/m2
07:48 35.8 °F 33.6 °F 29.6 in NW 2 mph 7 mph 92% 0.01 in 0 W/m2
07:53 36 °F 33.8 °F 29.6 in NE 2.9 mph 5 mph 92% 0.01 in 0 W/m2
07:58 36.1 °F 34 °F 29.6 in ENE 0.9 mph 5 mph 92% 0.01 in 0 W/m2
08:03 36.1 °F 34 °F 29.6 in North 2.9 mph 4 mph 92% 0.01 in 0 W/m2
08:08 36.3 °F 34 °F 29.5 in NNW 4 mph 8 mph 91% 0.01 in 0 W/m2
08:13 36.3 °F 34 °F 29.5 in ENE 2.9 mph 9 mph 91% 0.01 in 0 W/m2
08:18 36.5 °F 33.8 °F 29.5 in North 8.1 mph 8 mph 90% 0.01 in 0 W/m2
08:23 36.7 °F 34 °F 29.5 in North 2.9 mph 9 mph 90% 0 in 0 W/m2
08:28 36.9 °F 34 °F 29.5 in North 4 mph 5 mph 89% 0 in 0 W/m2
08:33 37 °F 34.2 °F 29.5 in ENE 4 mph 6 mph 89% 0 in 0 W/m2
08:38 37 °F 34.2 °F 29.5 in West 2.9 mph 5 mph 89% 0 in 0 W/m2
08:43 37.2 °F 34.3 °F 29.5 in NE 4.9 mph 11 mph 89% 0 in 0 W/m2
08:48 37.4 °F 34.2 °F 29.5 in East 0.9 mph 7 mph 88% 0 in 5 W/m2
08:53 37.6 °F 34.3 °F 29.5 in North 2 mph 11 mph 88% 0 in 0 W/m2
08:58 37.8 °F 34.2 °F 29.5 in WNW 2.9 mph 6 mph 87% 0 in 5 W/m2
09:03 37.8 °F 34.2 °F 29.5 in NNW 2 mph 9 mph 87% 0 in 9 W/m2
09:08 37.9 °F 34.3 °F 29.5 in NE 4 mph 8 mph 87% 0 in 12 W/m2
09:13 37.9 °F 34.3 °F 29.5 in East 11 mph 12 mph 87% 0 in 11 W/m2
09:18 38.1 °F 34.3 °F 29.5 in North 2.9 mph 7 mph 86% 0 in 11 W/m2
09:23 38.1 °F 34.3 °F 29.5 in ENE 4 mph 9 mph 86% 0 in 12 W/m2
09:28 38.3 °F 34.5 °F 29.5 in NNE 2.9 mph 9 mph 86% 0 in 16 W/m2
09:33 38.3 °F 34.5 °F 29.5 in East 2.9 mph 8 mph 86% 0 in 18 W/m2
09:38 38.3 °F 34.5 °F 29.5 in NNE 4 mph 9 mph 86% 0 in 18 W/m2
09:43 38.1 °F 34.3 °F 29.5 in ENE 8.9 mph 12 mph 86% 0 in 18 W/m2
09:48 38.1 °F 34 °F 29.4 in NNW 8.1 mph 14 mph 85% 0 in 26 W/m2
09:53 38.1 °F 34 °F 29.4 in NNW 2.9 mph 17 mph 85% 0 in 26 W/m2
09:58 38.1 °F 34 °F 29.4 in NNW 10.1 mph 12 mph 85% 0 in 18 W/m2
10:03 38.1 °F 34 °F 29.4 in East 4 mph 17 mph 85% 0 in 19 W/m2
10:08 38.1 °F 33.8 °F 29.4 in North 4 mph 13 mph 84% 0 in 18 W/m2
10:13 38.1 °F 34 °F 29.4 in North 2.9 mph 4 mph 85% 0 in 18 W/m2
10:18 38.1 °F 34 °F 29.4 in East 4 mph 13 mph 85% 0 in 18 W/m2
10:28 38.1 °F 34 °F 29.4 in North 2.9 mph 12 mph 85% 0 in 16 W/m2
10:33 38.1 °F 34 °F 29.4 in NNW 4 mph 9 mph 85% 0 in 18 W/m2
10:38 38.1 °F 34 °F 29.4 in NE 4.9 mph 9 mph 85% 0 in 19 W/m2
10:43 38.3 °F 34.2 °F 29.4 in West 6 mph 8 mph 85% 0 in 21 W/m2
10:48 38.3 °F 34.2 °F 29.4 in NW 2.9 mph 5 mph 85% 0 in 18 W/m2
10:53 38.3 °F 34.2 °F 29.4 in East 2 mph 8 mph 85% 0 in 21 W/m2
10:58 38.5 °F 34.3 °F 29.4 in SSE 2.9 mph 12 mph 85% 0 in 25 W/m2
11:03 38.5 °F 34.2 °F 29.4 in NNW 4 mph 9 mph 84% 0 in 26 W/m2
11:08 38.5 °F 34.2 °F 29.4 in NW 6 mph 13 mph 84% 0 in 23 W/m2
11:13 38.5 °F 34.2 °F 29.4 in NW 2 mph 14 mph 84% 0 in 26 W/m2
11:18 38.5 °F 34.2 °F 29.4 in East 0.9 mph 10 mph 84% 0 in 23 W/m2
11:23 38.5 °F 34.2 °F 29.4 in North 2.9 mph 6 mph 84% 0 in 21 W/m2
11:28 38.5 °F 34.2 °F 29.4 in NNW 4.9 mph 7 mph 84% 0 in 21 W/m2
11:33 38.5 °F 34.2 °F 29.4 in North 2.9 mph 12 mph 84% 0 in 28 W/m2
11:38 38.5 °F 34.2 °F 29.3 in NW 2.9 mph 17 mph 84% 0 in 28 W/m2
11:43 38.5 °F 34.3 °F 29.3 in ESE 4 mph 10 mph 85% 0 in 30 W/m2
11:48 38.3 °F 34.2 °F 29.3 in North 2 mph 4 mph 85% 0 in 33 W/m2
11:53 38.1 °F 34 °F 29.3 in NE 4.9 mph 6 mph 85% 0 in 37 W/m2
11:58 37.9 °F 34.2 °F 29.3 in NE 0.9 mph 6 mph 86% 0 in 49 W/m2
12:03 37.8 °F 34.2 °F 29.3 in North 4.9 mph 10 mph 87% 0 in 53 W/m2
12:08 37.6 °F 34 °F 29.3 in NNW 2.9 mph 13 mph 87% 0 in 39 W/m2
12:13 37.6 °F 34.3 °F 29.3 in WSW 8.9 mph 9 mph 88% 0 in 46 W/m2
12:18 37.6 °F 34.3 °F 29.3 in ENE 6 mph 13 mph 88% 0.01 in 35 W/m2
12:23 37.6 °F 34.3 °F 29.3 in NE 6.9 mph 10 mph 88% 0.01 in 44 W/m2
12:28 37.6 °F 34.3 °F 29.3 in SSE 2 mph 13 mph 88% 0.01 in 35 W/m2
12:33 37.6 °F 34.3 °F 29.3 in North 2 mph 9 mph 88% 0.01 in 35 W/m2
12:38 37.6 °F 34.3 °F 29.3 in North 4 mph 12 mph 88% 0.01 in 35 W/m2
12:43 37.8 °F 34.5 °F 29.3 in NE 2 mph 9 mph 88% 0.01 in 33 W/m2
12:48 37.8 °F 34.5 °F 29.3 in North 2.9 mph 11 mph 88% 0.01 in 33 W/m2
12:53 37.8 °F 34.5 °F 29.3 in East 6.9 mph 10 mph 88% 0.01 in 30 W/m2
12:58 37.6 °F 34.3 °F 29.3 in NNE 4.9 mph 13 mph 88% 0.01 in 28 W/m2
13:03 37.6 °F 34.3 °F 29.3 in NW 4 mph 8 mph 88% 0.02 in 21 W/m2
13:08 37.6 °F 34.3 °F 29.2 in ENE 2.9 mph 10 mph 88% 0.02 in 26 W/m2
13:13 37.6 °F 34.3 °F 29.2 in NNE 4.9 mph 12 mph 88% 0.02 in 19 W/m2
13:18 37.6 °F 34.3 °F 29.2 in WNW 4 mph 8 mph 88% 0.01 in 32 W/m2
13:23 37.6 °F 34.3 °F 29.2 in NW 6 mph 13 mph 88% 0.01 in 33 W/m2
13:28 37.6 °F 34.7 °F 29.2 in ENE 4 mph 7 mph 89% 0.01 in 35 W/m2
13:33 37.6 °F 34.7 °F 29.2 in ENE 10.1 mph 12 mph 89% 0.01 in 35 W/m2
13:38 37.6 °F 34.7 °F 29.2 in East 4.9 mph 8 mph 89% 0.01 in 28 W/m2
13:43 37.6 °F 34.7 °F 29.2 in SE 4 mph 10 mph 89% 0.01 in 26 W/m2
13:48 37.8 °F 34.9 °F 29.2 in NNE 0.9 mph 7 mph 89% 0.01 in 19 W/m2
13:53 37.8 °F 34.9 °F 29.2 in NNW 2 mph 8 mph 89% 0.01 in 21 W/m2
13:58 37.9 °F 35.1 °F 29.2 in East 2.9 mph 4 mph 89% 0.01 in 21 W/m2
14:03 37.9 °F 35.1 °F 29.2 in NNE 2 mph 11 mph 89% 0 in 16 W/m2
14:08 37.9 °F 35.1 °F 29.2 in East 4 mph 7 mph 89% 0 in 19 W/m2
14:13 38.1 °F 35.2 °F 29.2 in NE 6 mph 11 mph 89% 0.01 in 16 W/m2
14:18 38.1 °F 35.2 °F 29.2 in NE 6.9 mph 11 mph 89% 0.01 in 18 W/m2
14:23 38.3 °F 35.4 °F 29.2 in ENE 2 mph 9 mph 89% 0.01 in 16 W/m2
14:28 38.3 °F 35.4 °F 29.2 in North 4 mph 9 mph 89% 0.01 in 14 W/m2
14:33 38.3 °F 35.4 °F 29.1 in South 2.9 mph 6 mph 89% 0.01 in 12 W/m2
14:38 38.5 °F 35.6 °F 29.1 in NE 2.9 mph 7 mph 89% 0.01 in 14 W/m2
14:43 38.5 °F 35.6 °F 29.1 in NW 2.9 mph 8 mph 89% 0.01 in 12 W/m2
14:48 38.5 °F 35.6 °F 29.1 in NE 6.9 mph 15 mph 89% 0.01 in 12 W/m2
14:53 38.5 °F 35.6 °F 29.1 in NE 2 mph 9 mph 89% 0.01 in 12 W/m2
14:58 38.5 °F 35.6 °F 29.1 in ESE 4 mph 14 mph 89% 0.01 in 14 W/m2
15:03 38.5 °F 35.6 °F 29.1 in NNE 2.9 mph 13 mph 89% 0.01 in 12 W/m2
15:08 38.5 °F 35.6 °F 29.1 in NE 4 mph 9 mph 89% 0.02 in 11 W/m2
15:13 38.5 °F 35.8 °F 29.1 in NNE 2.9 mph 10 mph 90% 0.01 in 11 W/m2
15:18 38.7 °F 36 °F 29.1 in East 6.9 mph 9 mph 90% 0.01 in 9 W/m2
15:23 38.7 °F 36 °F 29.1 in South 8.9 mph 9 mph 90% 0.02 in 7 W/m2
15:28 38.7 °F 36.3 °F 29.1 in NNE 0.9 mph 6 mph 91% 0.02 in 9 W/m2
15:33 38.7 °F 36.3 °F 29.1 in East 6 mph 11 mph 91% 0.02 in 5 W/m2
15:38 38.8 °F 36.5 °F 29.1 in East 6.9 mph 10 mph 91% 0.02 in 5 W/m2
15:43 38.8 °F 36.5 °F 29.1 in SE 4 mph 10 mph 91% 0.02 in 5 W/m2
15:48 38.8 °F 36.5 °F 29.1 in ESE 10.1 mph 11 mph 91% 0.02 in 5 W/m2
15:53 38.8 °F 36.5 °F 29.1 in ENE 2 mph 8 mph 91% 0.03 in 0 W/m2
15:58 38.8 °F 36.5 °F 29.1 in ESE 2.9 mph 11 mph 91% 0.03 in 0 W/m2
16:03 38.7 °F 36.3 °F 29.1 in NE 6 mph 13 mph 91% 0.03 in 0 W/m2
16:08 38.7 °F 36.3 °F 29.1 in ESE 6.9 mph 11 mph 91% 0.03 in 0 W/m2
16:13 38.5 °F 36.1 °F 29.1 in ENE 6 mph 13 mph 91% 0.03 in 0 W/m2
16:18 38.3 °F 36 °F 29 in East 4 mph 11 mph 91% 0.04 in 0 W/m2
16:23 38.3 °F 36.1 °F 29 in ESE 2.9 mph 13 mph 92% 0.03 in 0 W/m2
16:28 38.1 °F 36 °F 29 in NNE 2 mph 9 mph 92% 0.03 in 0 W/m2
16:33 38.1 °F 36 °F 29 in ESE 10.1 mph 10 mph 92% 0.03 in 0 W/m2
16:38 38.1 °F 36 °F 29 in ENE 4.9 mph 10 mph 92% 0.04 in 0 W/m2
16:43 38.1 °F 36 °F 29 in East 6 mph 12 mph 92% 0.03 in 0 W/m2
16:48 38.1 °F 36 °F 29 in NE 2 mph 11 mph 92% 0.03 in 0 W/m2
16:53 38.1 °F 36 °F 29 in ENE 8.1 mph 16 mph 92% 0.02 in 0 W/m2
16:58 38.1 °F 36 °F 29 in ENE 2 mph 13 mph 92% 0.02 in 0 W/m2
17:03 38.1 °F 36 °F 29 in ENE 2.9 mph 16 mph 92% 0.02 in 0 W/m2
17:08 38.1 °F 36 °F 29 in SSE 4 mph 17 mph 92% 0.02 in 0 W/m2
17:13 38.5 °F 36.1 °F 29 in NNE 4 mph 13 mph 91% 0.02 in 0 W/m2
17:18 38.5 °F 36.1 °F 29 in ENE 4 mph 9 mph 91% 0.02 in 0 W/m2
17:23 38.5 °F 36.1 °F 29 in NE 2 mph 5 mph 91% 0.03 in 0 W/m2
17:28 38.5 °F 36.1 °F 29 in NNE 4.9 mph 9 mph 91% 0.04 in 0 W/m2
17:34 38.5 °F 36.1 °F 29 in NW 8.9 mph 11 mph 91% 0.05 in 0 W/m2
17:39 38.7 °F 36.3 °F 29 in ESE 6 mph 10 mph 91% 0.05 in 0 W/m2
17:44 38.7 °F 36.3 °F 29 in North 4 mph 14 mph 91% 0.05 in 0 W/m2
17:49 38.7 °F 36.3 °F 29 in ENE 6 mph 9 mph 91% 0.06 in 0 W/m2
17:54 38.7 °F 36.3 °F 29 in ENE 2.9 mph 6 mph 91% 0.07 in 0 W/m2
17:59 38.5 °F 36.1 °F 29 in NNE 6.9 mph 8 mph 91% 0.08 in 0 W/m2
18:04 38.5 °F 36.1 °F 29 in West 6.9 mph 8 mph 91% 0.09 in 0 W/m2
18:09 38.3 °F 36 °F 29 in ENE 4.9 mph 6 mph 91% 0.09 in 0 W/m2
18:14 38.1 °F 36 °F 29 in NNW 2 mph 7 mph 92% 0.1 in 0 W/m2
18:19 38.1 °F 36 °F 29 in NW 2.9 mph 5 mph 92% 0.09 in 0 W/m2
18:24 38.1 °F 36 °F 29 in NNE 2.9 mph 6 mph 92% 0.09 in 0 W/m2
18:29 37.9 °F 35.8 °F 29 in ENE 6 mph 10 mph 92% 0.09 in 0 W/m2
18:34 37.9 °F 35.8 °F 29 in NE 4 mph 10 mph 92% 0.08 in 0 W/m2
18:39 37.9 °F 35.8 °F 29 in NE 2 mph 14 mph 92% 0.07 in 0 W/m2
18:44 37.9 °F 35.8 °F 29 in NNE 4.9 mph 5 mph 92% 0.07 in 0 W/m2
18:49 37.9 °F 35.8 °F 29 in NNE 4 mph 7 mph 92% 0.06 in 0 W/m2
18:54 37.8 °F 35.6 °F 29 in NW 2.9 mph 6 mph 92% 0.05 in 0 W/m2
18:59 37.9 °F 35.8 °F 29 in North 2 mph 8 mph 92% 0.05 in 0 W/m2
19:04 37.9 °F 35.8 °F 28.9 in NNE 4 mph 9 mph 92% 0.04 in 0 W/m2
19:09 38.1 °F 36 °F 29 in ENE 2 mph 12 mph 92% 0.02 in 0 W/m2
19:14 38.1 °F 36 °F 28.9 in North 8.1 mph 11 mph 92% 0.02 in 0 W/m2
19:19 38.3 °F 36.1 °F 28.9 in ENE 4 mph 8 mph 92% 0.02 in 0 W/m2
19:24 38.5 °F 36.3 °F 28.9 in East 6.9 mph 11 mph 92% 0.02 in 0 W/m2
19:29 38.7 °F 36.3 °F 28.9 in NNE 2.9 mph 14 mph 91% 0.02 in 0 W/m2
19:34 38.7 °F 36.3 °F 28.9 in North 4 mph 9 mph 91% 0.02 in 0 W/m2
19:39 38.8 °F 36.5 °F 28.9 in SE 6.9 mph 14 mph 91% 0.02 in 0 W/m2
19:44 39 °F 36.7 °F 28.9 in West 2.9 mph 11 mph 91% 0.02 in 0 W/m2
19:49 39 °F 36.7 °F 28.9 in NNW 8.1 mph 13 mph 91% 0.02 in 0 W/m2
19:54 39.4 °F 36.7 °F 28.9 in NE 13 mph 13 mph 90% 0.02 in 0 W/m2
19:59 39.4 °F 36.7 °F 28.9 in NW 8.9 mph 16 mph 90% 0.01 in 0 W/m2
20:04 39.4 °F 36.7 °F 28.9 in NNE 2 mph 9 mph 90% 0.01 in 0 W/m2
20:09 39.4 °F 36.7 °F 28.9 in SW 2 mph 11 mph 90% 0.01 in 0 W/m2
20:14 39.2 °F 36.5 °F 28.9 in WNW 4.9 mph 13 mph 90% 0.01 in 0 W/m2
20:19 39.4 °F 36.7 °F 28.9 in North 4.9 mph 16 mph 90% 0.01 in 0 W/m2
20:24 39.4 °F 36.7 °F 28.9 in North 11 mph 11 mph 90% 0.01 in 0 W/m2
20:29 39.4 °F 36.7 °F 28.9 in SE 4 mph 16 mph 90% 0 in 0 W/m2
20:34 39.4 °F 36.7 °F 28.9 in NNE 8.1 mph 8 mph 90% 0 in 0 W/m2
20:39 39.4 °F 36.7 °F 28.9 in WNW 6.9 mph 12 mph 90% 0 in 0 W/m2
20:44 39.4 °F 36.5 °F 28.9 in ENE 6.9 mph 13 mph 89% 0 in 0 W/m2
20:49 39.4 °F 36.5 °F 28.9 in NNW 4 mph 9 mph 89% 0 in 0 W/m2
20:54 39.4 °F 36.5 °F 28.9 in North 6 mph 13 mph 89% 0 in 0 W/m2
20:59 39.4 °F 36.5 °F 28.9 in NNE 4 mph 6 mph 89% 0 in 0 W/m2
21:04 39.4 °F 36.5 °F 28.9 in WNW 8.1 mph 22 mph 89% 0 in 0 W/m2
21:09 39.6 °F 36.5 °F 28.9 in NNE 0.9 mph 10 mph 89% 0 in 0 W/m2
21:14 39.6 °F 36.5 °F 28.9 in NW 4.9 mph 8 mph 89% 0 in 0 W/m2
21:19 39.6 °F 36.3 °F 28.9 in WNW 6.9 mph 20 mph 88% 0 in 0 W/m2
21:24 39.6 °F 36.3 °F 28.9 in ENE 2.9 mph 12 mph 88% 0 in 0 W/m2
21:29 39.6 °F 36.3 °F 28.9 in NW 2 mph 9 mph 88% 0 in 0 W/m2
21:34 39.6 °F 36.3 °F 28.9 in NNE 2 mph 11 mph 88% 0 in 0 W/m2
21:39 39.6 °F 36 °F 28.9 in North 4.9 mph 11 mph 87% 0 in 0 W/m2
21:44 39.6 °F 36 °F 28.9 in WNW 4.9 mph 24 mph 87% 0 in 0 W/m2
21:49 39.6 °F 36.3 °F 28.9 in WNW 4.9 mph 10 mph 88% 0 in 0 W/m2
21:54 39.4 °F 36.1 °F 28.9 in West 11 mph 11 mph 88% 0 in 0 W/m2
21:59 39.4 °F 36.1 °F 28.9 in WSW 8.9 mph 15 mph 88% 0 in 0 W/m2
22:04 39.4 °F 36.1 °F 28.9 in NE 2.9 mph 12 mph 88% 0 in 0 W/m2
22:09 39.4 °F 36.1 °F 28.9 in NNW 2 mph 13 mph 88% 0 in 0 W/m2
22:14 39.4 °F 36.1 °F 28.9 in NW 2.9 mph 6 mph 88% 0 in 0 W/m2
22:19 39.2 °F 36 °F 28.9 in NE 4.9 mph 13 mph 88% 0 in 0 W/m2
22:24 39.2 °F 36 °F 28.9 in SSE 0.9 mph 6 mph 88% 0 in 0 W/m2
22:29 39 °F 36.1 °F 28.9 in West 2 mph 8 mph 89% 0 in 0 W/m2
22:34 39 °F 36.1 °F 28.9 in ESE 4 mph 10 mph 89% 0 in 0 W/m2
22:39 39 °F 36.1 °F 28.9 in North 4 mph 9 mph 89% 0 in 0 W/m2
22:44 39 °F 36.1 °F 28.9 in West 6 mph 7 mph 89% 0 in 0 W/m2
22:49 39 °F 36.1 °F 28.9 in WNW 0.9 mph 13 mph 89% 0 in 0 W/m2
22:54 39 °F 36.1 °F 28.9 in ENE 6 mph 7 mph 89% 0 in 0 W/m2
22:59 39 °F 36.3 °F 28.9 in NNW 4.9 mph 9 mph 90% 0 in 0 W/m2
23:04 39 °F 36.3 °F 28.9 in NE 2 mph 13 mph 90% 0 in 0 W/m2
23:09 39 °F 36.3 °F 28.9 in NNE 0.9 mph 6 mph 90% 0 in 0 W/m2
23:14 39 °F 36.1 °F 28.9 in NE 4.9 mph 18 mph 89% 0 in 0 W/m2
23:19 39 °F 36.1 °F 28.9 in WNW 4.9 mph 14 mph 89% 0 in 0 W/m2
23:24 39 °F 36.3 °F 28.9 in NNE 2.9 mph 18 mph 90% 0 in 0 W/m2
23:29 39 °F 36.3 °F 28.9 in WNW 2.9 mph 7 mph 90% 0 in 0 W/m2
23:34 39 °F 36.3 °F 28.9 in NNW 4 mph 11 mph 90% 0 in 0 W/m2
23:39 39 °F 36.3 °F 28.9 in SW 0.9 mph 6 mph 90% 0 in 0 W/m2
23:45 39 °F 36.3 °F 28.9 in SW 2.9 mph 9 mph 90% 0 in 0 W/m2
23:50 39 °F 36.3 °F 28.9 in North 2 mph 7 mph 90% 0 in 0 W/m2
23:55 39.2 °F 36.5 °F 28.9 in North 2 mph 9 mph 90% 0 in 0 W/m2
Juneau County Weather
Compliments of Weather Underground - 2 mb